createdAt,value
2023-03-31T00:02:32.382Z,1.70
2023-03-31T00:06:18.718Z,1.57
2023-03-31T00:10:16.502Z,3.30
2023-03-31T00:13:59.869Z,2.40
2023-03-31T00:17:41.631Z,1.57
2023-03-31T00:21:25.094Z,1.30
2023-03-31T00:25:08.854Z,2.27
2023-03-31T00:28:50.996Z,1.30
2023-03-31T00:32:33.340Z,2.13
2023-03-31T00:36:21.123Z,2.03
2023-03-31T00:40:09.630Z,1.10
2023-03-31T00:44:25.612Z,1.80
2023-03-31T00:48:15.255Z,1.10
2023-03-31T00:52:05.130Z,1.80
2023-03-31T00:55:51.603Z,2.67
2023-03-31T00:59:41.463Z,2.93
2023-03-31T01:03:24.086Z,3.63
2023-03-31T01:07:30.454Z,2.73
2023-03-31T01:11:16.345Z,3.07
2023-03-31T01:14:58.678Z,4.90
2023-03-31T01:18:40.540Z,3.03
2023-03-31T01:22:37.951Z,3.73
2023-03-31T01:26:28.633Z,2.47
2023-03-31T01:30:16.244Z,2.37
2023-03-31T01:34:19.086Z,3.73
2023-03-31T01:38:22.351Z,4.40
2023-03-31T01:42:45.282Z,3.27
2023-03-31T01:46:49.011Z,4.67
2023-03-31T01:50:54.041Z,4.57
2023-03-31T01:54:41.325Z,2.83
2023-03-31T01:58:34.802Z,2.63
2023-03-31T02:02:29.709Z,5.40
2023-03-31T02:06:17.023Z,4.40
2023-03-31T02:10:03.910Z,3.20
2023-03-31T02:13:49.147Z,3.43
2023-03-31T02:17:32.959Z,4.17
2023-03-31T02:21:16.490Z,5.43
2023-03-31T02:25:01.171Z,3.80
2023-03-31T02:28:43.578Z,2.90
2023-03-31T02:32:40.862Z,2.93
2023-03-31T02:36:23.739Z,3.57
2023-03-31T02:40:10.519Z,3.10
2023-03-31T02:43:52.372Z,3.47
2023-03-31T02:47:34.603Z,2.63
2023-03-31T02:51:33.469Z,2.97
2023-03-31T02:55:46.184Z,2.60
2023-03-31T02:59:27.849Z,3.00
2023-03-31T03:03:41.530Z,2.07
2023-03-31T03:07:26.712Z,3.07
2023-03-31T03:11:33.474Z,2.23
2023-03-31T03:15:49.125Z,2.87
2023-03-31T03:19:31.014Z,1.20
2023-03-31T03:23:12.757Z,3.70
2023-03-31T03:26:54.473Z,2.90
2023-03-31T03:30:36.908Z,2.37
2023-03-31T03:34:20.106Z,2.27
2023-03-31T03:38:01.925Z,4.43
2023-03-31T03:41:43.649Z,1.97
2023-03-31T03:45:25.373Z,2.40
2023-03-31T03:49:07.121Z,2.77
2023-03-31T03:52:48.841Z,2.33
2023-03-31T03:56:31.148Z,3.33
2023-03-31T04:00:13.184Z,4.03
2023-03-31T04:03:55.009Z,2.90
2023-03-31T04:07:36.732Z,5.50
2023-03-31T04:11:19.461Z,2.53
2023-03-31T04:15:01.372Z,4.50
2023-03-31T04:18:43.266Z,3.27
2023-03-31T04:22:29.041Z,4.07
2023-03-31T04:26:10.796Z,3.77
2023-03-31T04:29:54.779Z,4.23
2023-03-31T04:33:38.792Z,2.43
2023-03-31T04:37:20.520Z,5.23
2023-03-31T04:41:02.274Z,2.67
2023-03-31T04:44:44.116Z,2.50
2023-03-31T04:48:25.831Z,3.80
2023-03-31T04:52:07.528Z,2.20
2023-03-31T04:55:50.006Z,1.10
2023-03-31T04:59:31.735Z,2.90
2023-03-31T05:03:13.653Z,2.17
2023-03-31T05:06:56.018Z,2.37
2023-03-31T05:10:37.752Z,2.20
2023-03-31T05:14:20.885Z,2.10
2023-03-31T05:18:02.694Z,2.73
2023-03-31T05:21:44.505Z,1.80
2023-03-31T05:25:26.589Z,3.10
2023-03-31T05:29:08.335Z,3.00
2023-03-31T05:32:50.111Z,2.47
2023-03-31T05:36:32.271Z,2.67
2023-03-31T05:40:14.009Z,3.33
2023-03-31T05:43:55.792Z,2.23
2023-03-31T05:47:37.564Z,1.37
2023-03-31T05:51:19.325Z,2.27
2023-03-31T05:55:01.064Z,1.60
2023-03-31T05:58:43.028Z,1.67
2023-03-31T06:02:24.947Z,1.23
2023-03-31T06:06:12.907Z,0.90
2023-03-31T06:09:54.629Z,0.73
2023-03-31T06:13:37.587Z,1.43
2023-03-31T06:17:19.338Z,1.13
2023-03-31T06:21:01.631Z,2.30
2023-03-31T06:24:43.334Z,1.83
2023-03-31T06:28:25.048Z,0.77
2023-03-31T06:32:06.866Z,0.83
2023-03-31T06:35:48.621Z,1.60
2023-03-31T06:39:30.397Z,1.03
2023-03-31T06:43:12.128Z,0.63
2023-03-31T06:46:53.969Z,1.33
2023-03-31T06:50:38.607Z,1.13
2023-03-31T06:54:20.356Z,1.13
2023-03-31T06:58:02.094Z,1.20
2023-03-31T07:01:46.036Z,0.70
2023-03-31T07:05:28.779Z,1.20
2023-03-31T07:09:10.573Z,0.70
2023-03-31T07:12:52.527Z,0.53
2023-03-31T07:16:34.318Z,0.87
2023-03-31T07:20:16.549Z,1.27
2023-03-31T07:23:58.460Z,1.10
2023-03-31T07:27:40.423Z,1.03
2023-03-31T07:31:22.459Z,0.80
2023-03-31T07:35:04.361Z,1.40
2023-03-31T07:38:48.888Z,1.10
2023-03-31T07:42:30.735Z,0.97
2023-03-31T07:46:21.974Z,1.63
2023-03-31T07:50:03.996Z,1.30
2023-03-31T07:53:46.625Z,1.27
2023-03-31T07:57:28.398Z,0.60
2023-03-31T08:01:12.233Z,1.30
2023-03-31T08:04:54.068Z,0.87
2023-03-31T08:08:40.269Z,1.17
2023-03-31T08:12:22.083Z,1.63
2023-03-31T08:16:04.396Z,0.87
2023-03-31T08:19:46.408Z,0.70
2023-03-31T08:23:28.230Z,1.03
2023-03-31T08:27:12.243Z,0.80
2023-03-31T08:30:54.288Z,0.97
2023-03-31T08:34:36.479Z,0.37
2023-03-31T08:38:18.244Z,0.53
2023-03-31T08:42:23.292Z,0.60
2023-03-31T08:46:05.370Z,1.63
2023-03-31T08:50:04.956Z,0.77
2023-03-31T08:53:57.779Z,0.67
2023-03-31T08:58:03.651Z,1.03
2023-03-31T09:01:56.832Z,1.03
2023-03-31T09:05:57.292Z,1.50
2023-03-31T09:09:50.879Z,1.40
2023-03-31T09:14:01.910Z,1.50
2023-03-31T09:17:51.398Z,1.00
2023-03-31T09:21:38.021Z,0.98
2023-03-31T09:25:34.088Z,1.13
2023-03-31T09:29:21.099Z,1.97
2023-03-31T09:33:20.438Z,1.67
2023-03-31T09:37:05.966Z,0.80
2023-03-31T09:40:50.660Z,1.23
2023-03-31T09:44:53.909Z,0.87
2023-03-31T09:48:40.330Z,0.50
2023-03-31T09:52:37.574Z,1.93
2023-03-31T09:56:46.051Z,0.50
2023-03-31T10:00:31.307Z,2.63
2023-03-31T10:04:37.748Z,1.37
2023-03-31T10:08:32.240Z,0.93
2023-03-31T10:12:25.749Z,0.70
2023-03-31T10:16:26.316Z,0.70
2023-03-31T10:20:29.506Z,0.83
2023-03-31T10:24:14.905Z,0.60
2023-03-31T10:28:00.406Z,0.90
2023-03-31T10:31:45.469Z,1.00
2023-03-31T10:35:35.604Z,0.70
2023-03-31T10:39:24.394Z,0.52
2023-03-31T10:43:22.110Z,0.80
2023-03-31T10:47:28.572Z,1.30
2023-03-31T10:51:55.186Z,0.53
2023-03-31T10:55:49.572Z,0.93
2023-03-31T10:59:49.744Z,0.90
2023-03-31T11:03:37.196Z,0.40
2023-03-31T11:07:43.174Z,1.30
2023-03-31T11:11:46.366Z,0.67
2023-03-31T11:16:07.124Z,0.73
2023-03-31T11:20:15.021Z,0.57
2023-03-31T11:24:24.509Z,0.30
2023-03-31T11:28:38.857Z,0.60
2023-03-31T11:32:31.206Z,0.93
2023-03-31T11:36:36.834Z,0.67
2023-03-31T11:40:49.508Z,0.77
2023-03-31T11:44:48.512Z,1.10
2023-03-31T11:48:51.769Z,0.93
2023-03-31T11:52:41.574Z,0.53
2023-03-31T11:56:32.434Z,0.38
2023-03-31T12:00:22.264Z,0.93
2023-03-31T12:04:13.083Z,0.50
2023-03-31T12:08:06.649Z,1.20
2023-03-31T12:12:26.374Z,0.97
2023-03-31T12:16:32.084Z,1.23
2023-03-31T12:20:43.742Z,0.90
2023-03-31T12:24:36.405Z,1.03
2023-03-31T12:28:23.603Z,0.97
2023-03-31T12:32:19.074Z,0.60
2023-03-31T12:36:18.702Z,1.50
2023-03-31T12:40:22.731Z,0.63
2023-03-31T12:44:14.788Z,0.57
2023-03-31T12:48:01.547Z,0.73
2023-03-31T12:51:46.408Z,0.93
2023-03-31T12:55:39.529Z,1.60
2023-03-31T12:59:38.924Z,0.60
2023-03-31T13:04:00.780Z,0.63
2023-03-31T13:07:46.276Z,0.77
2023-03-31T13:11:38.643Z,1.00
2023-03-31T13:15:23.731Z,1.47
2023-03-31T13:19:09.122Z,0.80
2023-03-31T13:23:13.777Z,1.00
2023-03-31T13:26:59.315Z,1.43
2023-03-31T13:30:43.384Z,1.10
2023-03-31T13:34:34.894Z,1.20
2023-03-31T13:38:51.631Z,1.20
2023-03-31T13:42:55.645Z,0.40
2023-03-31T13:47:12.687Z,0.63
2023-03-31T13:51:15.541Z,1.53
2023-03-31T13:55:16.570Z,1.23
2023-03-31T13:59:11.189Z,1.67
2023-03-31T14:03:15.871Z,0.90
2023-03-31T14:07:16.006Z,1.13
2023-03-31T14:11:24.229Z,1.43
2023-03-31T14:15:20.681Z,1.20
2023-03-31T14:19:27.405Z,0.47
2023-03-31T14:23:15.836Z,1.73
2023-03-31T14:27:27.528Z,2.40
2023-03-31T14:31:25.857Z,0.53
2023-03-31T14:35:34.561Z,2.07
2023-03-31T14:39:24.246Z,0.63
2023-03-31T14:43:09.290Z,1.50
2023-03-31T14:46:54.169Z,1.23
2023-03-31T14:50:38.356Z,2.10
2023-03-31T14:54:24.565Z,2.23
2023-03-31T14:58:12.735Z,3.53
2023-03-31T15:02:00.949Z,1.53
2023-03-31T15:05:48.952Z,1.13
2023-03-31T15:09:38.077Z,1.53
2023-03-31T15:14:03.528Z,3.10
2023-03-31T15:17:49.819Z,1.03
2023-03-31T15:21:37.438Z,3.13
2023-03-31T15:25:22.527Z,0.97
2023-03-31T15:29:21.165Z,2.30
2023-03-31T15:33:18.853Z,1.87
2023-03-31T15:37:05.048Z,2.20
2023-03-31T15:40:57.703Z,1.43
2023-03-31T15:44:55.517Z,1.83
2023-03-31T15:48:55.523Z,1.20
2023-03-31T15:52:48.367Z,1.73
2023-03-31T15:56:40.135Z,1.90
2023-03-31T16:00:37.801Z,1.33
2023-03-31T16:04:22.278Z,1.53
2023-03-31T16:08:12.484Z,1.60
2023-03-31T16:12:03.374Z,2.00
2023-03-31T16:15:53.690Z,2.60
2023-03-31T16:23:28.111Z,1.30
2023-03-31T16:27:10.078Z,2.93
2023-03-31T16:30:52.141Z,0.83
2023-03-31T16:34:37.282Z,1.10
2023-03-31T16:38:23.006Z,1.47
2023-03-31T16:42:07.969Z,1.17
2023-03-31T16:45:53.993Z,1.60
2023-03-31T16:49:39.247Z,1.80
2023-03-31T16:53:25.808Z,1.27
2023-03-31T16:57:10.117Z,1.87
2023-03-31T17:00:56.511Z,1.50
2023-03-31T17:04:41.514Z,1.57
2023-03-31T17:08:28.137Z,1.13
2023-03-31T17:12:11.250Z,1.23
2023-03-31T17:16:04.579Z,1.03
2023-03-31T17:20:00.656Z,1.70
2023-03-31T17:23:44.203Z,1.17
2023-03-31T17:27:28.208Z,1.70
2023-03-31T17:31:15.077Z,1.27
2023-03-31T17:34:58.069Z,2.23
2023-03-31T17:38:40.045Z,1.77
2023-03-31T17:42:24.091Z,1.20
2023-03-31T17:46:09.922Z,0.87
2023-03-31T17:49:59.510Z,0.93
2023-03-31T17:53:43.215Z,1.40
2023-03-31T17:57:27.552Z,1.20
2023-03-31T18:01:10.626Z,1.67
2023-03-31T18:04:55.401Z,1.67
2023-03-31T18:08:37.766Z,2.27
2023-03-31T18:12:22.345Z,1.17
2023-03-31T18:16:05.233Z,1.83
2023-03-31T18:19:46.997Z,2.37
2023-03-31T18:23:28.726Z,1.93
2023-03-31T18:27:10.700Z,2.63
2023-03-31T18:30:56.035Z,0.87
2023-03-31T18:34:38.292Z,1.03
2023-03-31T18:38:23.488Z,1.53
2023-03-31T18:42:05.363Z,0.70
2023-03-31T18:45:55.502Z,1.60
2023-03-31T18:49:37.328Z,2.08
2023-03-31T18:53:29.438Z,2.97
2023-03-31T18:57:11.696Z,1.53
2023-03-31T19:00:57.324Z,1.53
2023-03-31T19:04:39.169Z,1.63
2023-03-31T19:08:23.110Z,1.27
2023-03-31T19:12:05.120Z,1.70
2023-03-31T19:15:47.035Z,1.33
2023-03-31T19:19:28.880Z,1.47
2023-03-31T19:23:11.201Z,1.30
2023-03-31T19:26:58.161Z,2.33
2023-03-31T19:30:40.130Z,2.40
2023-03-31T19:34:25.083Z,1.80
2023-03-31T19:38:06.764Z,2.73
2023-03-31T19:41:51.891Z,1.67
2023-03-31T19:45:37.405Z,1.30
2023-03-31T19:49:22.587Z,1.50
2023-03-31T19:53:04.350Z,1.83
2023-03-31T19:56:51.635Z,1.40
2023-03-31T20:00:33.395Z,1.13
2023-03-31T20:04:19.624Z,1.40
2023-03-31T20:08:01.440Z,0.70
2023-03-31T20:11:43.512Z,1.70
2023-03-31T20:15:25.870Z,1.07
2023-03-31T20:19:07.919Z,1.63
2023-03-31T20:22:53.124Z,2.20
2023-03-31T20:26:35.415Z,1.67
2023-03-31T20:30:20.677Z,2.50
2023-03-31T20:34:02.510Z,1.27
2023-03-31T20:37:47.739Z,1.03
2023-03-31T20:41:30.961Z,1.70
2023-03-31T20:45:16.668Z,1.40
2023-03-31T20:48:58.572Z,0.90
2023-03-31T20:52:44.546Z,1.20
2023-03-31T20:56:27.751Z,1.13
2023-03-31T21:00:11.282Z,3.53
2023-03-31T21:03:54.887Z,1.17
2023-03-31T21:07:36.738Z,1.23
2023-03-31T21:11:23.247Z,1.73
2023-03-31T21:15:05.605Z,1.57
2023-03-31T21:18:50.995Z,1.77
2023-03-31T21:22:32.696Z,1.20
2023-03-31T21:26:18.803Z,1.43
2023-03-31T21:30:00.578Z,1.47
2023-03-31T21:33:48.096Z,1.40
2023-03-31T21:37:29.955Z,1.70
2023-03-31T21:41:29.566Z,2.03
2023-03-31T21:45:12.271Z,1.30
2023-03-31T21:48:58.000Z,1.50
2023-03-31T21:52:39.717Z,1.83
2023-03-31T21:56:26.680Z,1.30
2023-03-31T22:00:12.297Z,1.50
2023-03-31T22:03:54.437Z,1.20
2023-03-31T22:07:36.914Z,1.13
2023-03-31T22:11:18.877Z,0.87
2023-03-31T22:15:01.960Z,0.97
2023-03-31T22:18:44.416Z,1.23
2023-03-31T22:22:28.973Z,0.90
2023-03-31T22:26:10.877Z,0.80
2023-03-31T22:29:56.012Z,1.10
2023-03-31T22:33:37.807Z,1.73
2023-03-31T22:37:20.968Z,1.17
2023-03-31T22:41:02.896Z,1.33
2023-03-31T22:44:46.843Z,0.77
2023-03-31T22:48:28.614Z,1.10
2023-03-31T22:52:11.990Z,0.63
2023-03-31T22:55:54.752Z,1.53
2023-03-31T22:59:36.657Z,0.70
2023-03-31T23:03:20.439Z,0.87
2023-03-31T23:07:02.204Z,1.10
2023-03-31T23:10:58.145Z,0.57
2023-03-31T23:14:39.909Z,1.97
2023-03-31T23:18:23.861Z,1.20
2023-03-31T23:22:06.090Z,0.73
2023-03-31T23:25:51.005Z,0.67
2023-03-31T23:29:33.341Z,1.67
2023-03-31T23:33:16.365Z,1.40
2023-03-31T23:36:58.084Z,0.60
2023-03-31T23:40:40.741Z,0.77
2023-03-31T23:44:22.566Z,1.10
2023-03-31T23:48:04.608Z,0.93
2023-03-31T23:51:46.443Z,1.77
2023-03-31T23:55:28.629Z,0.77
2023-03-31T23:59:13.025Z,2.20
